Time;durP1;ratioP1;P1;durP2;ratioP2;P2;SDS_P1;SDS_P2;PMS_P1;PMS_P2;Temp;Humidity;BMP_temperature;BMP_pressure;BME280_temperature;BME280_humidity;BME280_pressure;Samples;Min_cycle;Max_cycle;Signal;HPM_P1;HPM_P2
2021/06/12 00:01:18;;;;;;;6.32;4.60;;;19.30;99.90;;;;;;5099887;28;20686;-82
2021/06/12 00:03:44;;;;;;;5.07;4.47;;;18.90;99.90;;;;;;5098707;28;20247;-83
2021/06/12 00:06:12;;;;;;;6.13;4.95;;;18.90;99.90;;;;;;5102455;28;20685;-83
2021/06/12 00:08:38;;;;;;;5.70;5.10;;;19.10;99.90;;;;;;5104886;28;20717;-82
2021/06/12 00:11:05;;;;;;;5.80;5.20;;;19.20;99.90;;;;;;5101095;28;20201;-82
2021/06/12 00:13:31;;;;;;;6.57;4.95;;;19.30;99.90;;;;;;5103579;28;20250;-82
2021/06/12 00:15:58;;;;;;;5.28;4.78;;;19.30;99.90;;;;;;5109150;28;20228;-82
2021/06/12 00:18:25;;;;;;;6.00;5.00;;;19.40;99.90;;;;;;5099617;28;20824;-83
2021/06/12 00:20:53;;;;;;;6.43;4.90;;;19.50;99.90;;;;;;5104272;28;20292;-82
2021/06/12 00:23:21;;;;;;;5.57;4.80;;;19.30;99.90;;;;;;5101209;28;20243;-82
2021/06/12 00:25:47;;;;;;;6.90;5.10;;;19.30;99.90;;;;;;5106656;28;20193;-82
2021/06/12 00:28:13;;;;;;;6.80;5.43;;;19.20;99.90;;;;;;5103408;28;20237;-82
2021/06/12 00:30:40;;;;;;;7.28;5.22;;;19.20;99.90;;;;;;5097258;28;20205;-82
2021/06/12 00:33:06;;;;;;;6.05;5.45;;;19.30;99.90;;;;;;5106532;28;20236;-83
2021/06/12 00:35:33;;;;;;;6.53;5.65;;;19.30;99.90;;;;;;5102846;28;20305;-83
2021/06/12 00:38:00;;;;;;;10.63;6.15;;;19.20;99.90;;;;;;5104647;28;20259;-82
2021/06/12 00:40:27;;;;;;;9.43;6.30;;;19.10;99.90;;;;;;5092936;28;20240;-83
2021/06/12 00:42:54;;;;;;;6.45;5.65;;;19.30;99.90;;;;;;5104102;28;20201;-82
2021/06/12 00:45:23;;;;;;;7.32;6.28;;;19.20;99.90;;;;;;5094638;28;20348;-82
2021/06/12 00:47:51;;;;;;;7.22;6.30;;;19.20;99.90;;;;;;5095016;28;20229;-82
2021/06/12 00:50:19;;;;;;;8.43;6.82;;;19.10;99.90;;;;;;5104989;28;20197;-83
2021/06/12 00:52:45;;;;;;;9.07;6.80;;;19.20;99.90;;;;;;5103692;28;20661;-82
2021/06/12 00:55:14;;;;;;;8.85;6.43;;;19.20;99.90;;;;;;5100596;28;20224;-82
2021/06/12 00:57:43;;;;;;;10.07;6.95;;;19.30;99.90;;;;;;5107928;28;20260;-83
2021/06/12 01:00:13;;;;;;;7.25;6.50;;;19.30;99.90;;;;;;5099322;28;20220;-82
2021/06/12 01:02:40;;;;;;;9.25;7.30;;;19.30;99.90;;;;;;5099625;28;20225;-84
2021/06/12 01:05:09;;;;;;;10.15;6.70;;;19.20;99.90;;;;;;5096146;28;20200;-82
2021/06/12 01:07:35;;;;;;;8.27;6.45;;;19.20;99.90;;;;;;5093347;28;20256;-83
2021/06/12 01:10:04;;;;;;;8.18;6.95;;;19.30;99.90;;;;;;5105297;28;20671;-82
2021/06/12 01:12:38;;;;;;;9.65;7.72;;;19.30;99.90;;;;;;5110509;28;20597;-82
2021/06/12 01:15:10;;;;;;;10.77;7.13;;;19.30;99.90;;;;;;5098545;28;20757;-82
2021/06/12 01:17:43;;;;;;;9.73;7.50;;;19.20;99.90;;;;;;5099711;28;20197;-82
2021/06/12 01:20:21;;;;;;;8.95;8.05;;;19.20;99.90;;;;;;5102549;28;20358;-82
2021/06/12 01:23:05;;;;;;;9.40;7.18;;;19.30;99.90;;;;;;5096126;28;20212;-82
2021/06/12 01:25:47;;;;;;;11.82;8.23;;;19.20;99.90;;;;;;5097595;28;20196;-82
2021/06/12 01:28:51;;;;;;;15.25;9.27;;;19.20;99.90;;;;;;5111323;28;20713;-82
2021/06/12 01:31:20;;;;;;;11.70;8.43;;;19.10;99.90;;;;;;5104922;28;20217;-82
2021/06/12 01:33:49;;;;;;;12.13;7.97;;;19.20;99.90;;;;;;5096423;28;20201;-82
2021/06/12 01:36:17;;;;;;;11.10;8.27;;;19.20;99.90;;;;;;5102449;28;20283;-83
2021/06/12 01:38:47;;;;;;;9.95;8.15;;;19.10;99.90;;;;;;5102167;28;20227;-82
2021/06/12 01:41:17;;;;;;;10.70;8.30;;;19.10;99.90;;;;;;5107356;28;20205;-82
2021/06/12 01:43:44;;;;;;;10.70;7.55;;;18.80;99.90;;;;;;5101130;28;20659;-82
2021/06/12 01:46:12;;;;;;;9.43;8.07;;;18.80;99.90;;;;;;5107075;28;20239;-82
2021/06/12 01:48:41;;;;;;;9.88;8.20;;;18.90;99.90;;;;;;5097490;28;20229;-83
2021/06/12 01:51:10;;;;;;;9.30;7.38;;;18.80;99.90;;;;;;5093747;28;20296;-82
2021/06/12 01:53:38;;;;;;;8.38;7.30;;;18.90;99.90;;;;;;5103638;28;20209;-83
2021/06/12 01:56:06;;;;;;;10.80;8.07;;;18.90;99.90;;;;;;5100035;28;20303;-83
2021/06/12 01:58:36;;;;;;;9.98;8.13;;;18.90;99.90;;;;;;5097808;28;20224;-83
2021/06/12 02:01:04;;;;;;;8.82;7.63;;;18.70;99.90;;;;;;5101470;28;20205;-82
2021/06/12 02:03:31;;;;;;;11.07;7.88;;;18.70;99.90;;;;;;5105490;28;20228;-82
2021/06/12 02:06:01;;;;;;;12.27;8.32;;;18.80;99.90;;;;;;5107850;28;20287;-83
2021/06/12 02:08:28;;;;;;;11.52;8.68;;;18.80;99.90;;;;;;5101464;28;20244;-82
2021/06/12 02:10:55;;;;;;;12.02;8.75;;;18.80;99.90;;;;;;5107579;28;20209;-83
2021/06/12 02:13:24;;;;;;;10.73;8.20;;;18.80;99.90;;;;;;5107231;28;20727;-82
2021/06/12 02:15:53;;;;;;;13.18;9.15;;;18.80;99.90;;;;;;5096665;28;20592;-83
2021/06/12 02:18:22;;;;;;;12.82;9.23;;;18.80;99.90;;;;;;5102887;28;20312;-82
2021/06/12 02:20:51;;;;;;;10.93;8.63;;;18.80;99.90;;;;;;5093991;28;20282;-84
2021/06/12 02:23:19;;;;;;;10.02;8.20;;;18.80;99.90;;;;;;5106097;28;20245;-82
2021/06/12 02:25:47;;;;;;;10.60;8.73;;;18.80;99.90;;;;;;5111543;28;20276;-82
2021/06/12 02:28:15;;;;;;;9.38;7.93;;;18.70;99.90;;;;;;5096713;28;20227;-82
2021/06/12 02:30:45;;;;;;;11.18;8.43;;;18.70;99.90;;;;;;5104571;28;20200;-82
2021/06/12 02:33:14;;;;;;;12.27;8.55;;;18.80;99.90;;;;;;5105841;28;20205;-83
2021/06/12 02:35:41;;;;;;;13.40;8.25;;;18.70;99.90;;;;;;5097427;28;20337;-82
2021/06/12 02:38:09;;;;;;;11.13;8.43;;;18.70;99.90;;;;;;5100321;28;20239;-82
2021/06/12 02:40:37;;;;;;;8.65;7.70;;;18.80;99.90;;;;;;5104137;28;20197;-82
2021/06/12 02:43:04;;;;;;;10.75;7.90;;;18.90;99.90;;;;;;5106575;28;20697;-82
2021/06/12 02:45:33;;;;;;;8.88;7.70;;;18.80;99.90;;;;;;5107085;28;20320;-82
2021/06/12 02:48:02;;;;;;;9.98;7.78;;;18.70;99.90;;;;;;5100237;28;20344;-83
2021/06/12 02:50:33;;;;;;;11.73;8.15;;;18.70;99.90;;;;;;5104639;28;20198;-83
2021/06/12 02:53:03;;;;;;;10.18;8.27;;;18.70;99.90;;;;;;5101545;28;20268;-83
2021/06/12 02:55:32;;;;;;;10.13;8.23;;;18.80;99.90;;;;;;5097664;28;20216;-82
2021/06/12 02:58:02;;;;;;;10.55;8.27;;;18.70;99.90;;;;;;5107427;28;20247;-82
2021/06/12 03:00:29;;;;;;;10.15;8.40;;;18.50;99.90;;;;;;5107741;28;20713;-83
2021/06/12 03:02:56;;;;;;;11.43;8.15;;;18.40;99.90;;;;;;5095804;28;20289;-82
2021/06/12 03:05:26;;;;;;;11.52;8.13;;;18.40;99.90;;;;;;5097330;28;20225;-83
2021/06/12 03:07:54;;;;;;;11.10;7.82;;;18.50;99.90;;;;;;5097162;28;20228;-83
2021/06/12 03:10:22;;;;;;;11.07;8.23;;;18.40;99.90;;;;;;5094184;28;20288;-83
2021/06/12 03:12:50;;;;;;;12.35;8.35;;;18.40;99.90;;;;;;5097484;28;20205;-82
2021/06/12 03:15:19;;;;;;;10.95;8.55;;;18.40;99.90;;;;;;5105963;28;20788;-83
2021/06/12 03:17:47;;;;;;;12.75;8.82;;;18.30;99.90;;;;;;5093211;28;20198;-82
2021/06/12 03:20:15;;;;;;;13.85;9.45;;;18.30;99.90;;;;;;5107091;28;20675;-82
2021/06/12 03:22:45;;;;;;;10.82;8.90;;;18.30;99.90;;;;;;5097406;28;20462;-83
2021/06/12 03:25:13;;;;;;;12.48;8.25;;;18.20;99.90;;;;;;5106207;28;20255;-83
2021/06/12 03:27:40;;;;;;;10.18;8.30;;;18.30;99.90;;;;;;5104524;28;20193;-82
2021/06/12 03:30:08;;;;;;;11.32;8.85;;;18.30;99.90;;;;;;5105459;28;20205;-83
2021/06/12 03:32:36;;;;;;;17.02;9.98;;;18.20;99.90;;;;;;5101276;28;20277;-83
2021/06/12 03:35:03;;;;;;;14.23;9.77;;;18.20;99.90;;;;;;5095624;28;20225;-83
2021/06/12 03:37:31;;;;;;;17.83;9.10;;;18.30;99.90;;;;;;5100682;28;20221;-82
2021/06/12 03:39:57;;;;;;;11.20;8.65;;;18.20;99.90;;;;;;5094093;28;20205;-83
2021/06/12 03:42:24;;;;;;;13.50;8.82;;;18.30;99.90;;;;;;5104950;28;20288;-82
2021/06/12 03:44:52;;;;;;;11.10;9.05;;;18.20;99.90;;;;;;5101413;28;20294;-84
2021/06/12 03:47:19;;;;;;;15.40;9.70;;;18.30;99.90;;;;;;5095652;28;20225;-83
2021/06/12 03:49:47;;;;;;;14.60;10.48;;;18.30;99.90;;;;;;5098034;28;20254;-83
2021/06/12 03:52:13;;;;;;;12.52;9.15;;;18.10;99.90;;;;;;5096328;28;20288;-82
2021/06/12 03:54:42;;;;;;;15.30;10.82;;;18.20;99.90;;;;;;5109943;28;20224;-82
2021/06/12 03:57:08;;;;;;;14.73;10.77;;;18.20;99.90;;;;;;5099117;28;20471;-82
2021/06/12 03:59:35;;;;;;;18.15;10.45;;;18.20;99.90;;;;;;5113701;28;20303;-82
2021/06/12 04:02:03;;;;;;;16.48;10.70;;;18.30;99.90;;;;;;5105019;28;20288;-83
2021/06/12 04:04:29;;;;;;;13.90;10.65;;;18.40;99.90;;;;;;5095876;28;20221;-81
2021/06/12 04:06:57;;;;;;;14.63;11.35;;;18.50;99.90;;;;;;5093667;28;20289;-80
2021/06/12 04:09:23;;;;;;;16.10;11.65;;;18.60;99.90;;;;;;5111700;28;20299;-80
2021/06/12 04:11:50;;;;;;;15.85;12.02;;;18.60;99.90;;;;;;5099787;28;20207;-80
2021/06/12 04:14:16;;;;;;;16.35;11.02;;;18.60;99.90;;;;;;5108842;28;20212;-80
2021/06/12 04:16:43;;;;;;;18.73;13.82;;;18.60;99.90;;;;;;5108220;28;20206;-80
2021/06/12 04:19:09;;;;;;;16.90;12.90;;;18.60;99.90;;;;;;5111853;28;20224;-80
2021/06/12 04:21:35;;;;;;;18.15;11.68;;;18.60;99.90;;;;;;5107057;28;20224;-80
2021/06/12 04:24:03;;;;;;;15.77;11.48;;;18.80;99.90;;;;;;5107568;28;20236;-79
2021/06/12 04:26:30;;;;;;;19.27;13.35;;;18.80;99.90;;;;;;5106006;28;20561;-80
2021/06/12 04:28:56;;;;;;;17.50;13.50;;;18.80;99.90;;;;;;5097059;28;20300;-80
2021/06/12 04:31:23;;;;;;;20.65;13.75;;;18.70;99.90;;;;;;5107448;28;20280;-79
2021/06/12 04:33:49;;;;;;;20.83;14.98;;;18.70;99.90;;;;;;5123168;28;20607;-78
2021/06/12 04:36:16;;;;;;;27.63;15.63;;;18.70;99.90;;;;;;5105696;28;20433;-80
2021/06/12 04:38:42;;;;;;;19.63;14.10;;;18.80;99.90;;;;;;5103298;28;20212;-79
2021/06/12 04:41:10;;;;;;;19.60;13.93;;;18.80;99.90;;;;;;5107369;28;20221;-79
2021/06/12 04:43:36;;;;;;;22.48;14.43;;;18.80;99.90;;;;;;5098409;28;20208;-80
2021/06/12 04:46:02;;;;;;;18.73;14.63;;;18.70;99.90;;;;;;5102249;28;20197;-80
2021/06/12 04:48:29;;;;;;;22.23;14.88;;;18.60;99.90;;;;;;5100149;28;20649;-80
2021/06/12 04:50:55;;;;;;;21.08;13.85;;;18.70;99.90;;;;;;5107590;28;20226;-80
2021/06/12 04:53:21;;;;;;;25.02;15.20;;;18.80;99.90;;;;;;5101711;28;20287;-80
2021/06/12 04:55:48;;;;;;;18.45;14.05;;;18.80;99.90;;;;;;5104003;28;20213;-80
2021/06/12 04:58:16;;;;;;;17.27;13.82;;;18.90;99.90;;;;;;5104799;28;20313;-80
2021/06/12 05:00:42;;;;;;;19.27;14.00;;;19.00;99.90;;;;;;5099121;28;20684;-81
2021/06/12 05:03:09;;;;;;;22.50;14.82;;;19.00;99.90;;;;;;5101290;28;20209;-80
2021/06/12 05:05:35;;;;;;;23.20;15.93;;;19.10;99.90;;;;;;5104648;28;20232;-80
2021/06/12 05:08:01;;;;;;;20.70;15.98;;;19.10;99.90;;;;;;5106280;28;20216;-79
2021/06/12 05:10:28;;;;;;;22.67;16.05;;;19.30;99.90;;;;;;5098421;28;20694;-80
2021/06/12 05:12:54;;;;;;;22.83;16.58;;;19.50;99.90;;;;;;5099431;28;20635;-80
2021/06/12 05:15:27;;;;;;;22.55;16.63;;;19.50;99.90;;;;;;5103616;28;20676;-80
2021/06/12 05:17:53;;;;;;;22.98;16.30;;;19.50;99.90;;;;;;5106344;28;20233;-80
2021/06/12 05:20:21;;;;;;;21.67;16.50;;;19.60;99.90;;;;;;5102177;28;20201;-80
2021/06/12 05:22:49;;;;;;;23.80;17.30;;;19.70;99.90;;;;;;5098899;28;20655;-80
2021/06/12 05:25:16;;;;;;;24.80;17.90;;;19.70;99.90;;;;;;5096270;28;20795;-79
2021/06/12 05:27:42;;;;;;;22.65;17.58;;;19.60;99.90;;;;;;5094617;28;20205;-81
2021/06/12 05:30:10;;;;;;;22.70;17.05;;;19.80;99.90;;;;;;5097000;28;20685;-81
2021/06/12 05:32:38;;;;;;;23.13;16.88;;;19.80;99.90;;;;;;5098304;28;20673;-80
2021/06/12 05:35:06;;;;;;;23.38;17.13;;;19.60;99.90;;;;;;5101764;28;20220;-80
2021/06/12 05:37:35;;;;;;;27.98;18.08;;;19.60;99.90;;;;;;5104261;28;20204;-81
2021/06/12 05:40:02;;;;;;;28.55;17.35;;;19.70;99.90;;;;;;5103448;28;20201;-80
2021/06/12 05:42:28;;;;;;;26.70;17.30;;;19.90;99.90;;;;;;5101338;28;20574;-79
2021/06/12 05:44:55;;;;;;;25.33;17.48;;;19.90;99.90;;;;;;5104888;28;20197;-80
2021/06/12 05:47:21;;;;;;;26.05;16.67;;;20.00;99.90;;;;;;5103214;28;20256;-79
2021/06/12 05:49:49;;;;;;;27.15;17.25;;;20.10;99.90;;;;;;5101820;28;20296;-79
2021/06/12 05:52:15;;;;;;;24.75;17.88;;;20.20;99.90;;;;;;5101585;28;20224;-79
2021/06/12 05:54:42;;;;;;;27.65;18.35;;;20.00;99.90;;;;;;5102567;28;20233;-80
2021/06/12 05:57:09;;;;;;;26.08;17.70;;;20.10;99.90;;;;;;5107132;28;20279;-79
2021/06/12 05:59:35;;;;;;;26.40;17.95;;;20.00;99.90;;;;;;5096790;28;20244;-80
2021/06/12 06:02:01;;;;;;;25.90;18.95;;;20.00;99.90;;;;;;5102142;28;20284;-80
2021/06/12 06:04:28;;;;;;;26.70;18.50;;;19.90;99.90;;;;;;5092831;28;20720;-79
2021/06/12 06:06:55;;;;;;;24.90;17.48;;;20.10;99.90;;;;;;5090907;28;20233;-80
2021/06/12 06:09:22;;;;;;;27.13;18.15;;;20.00;99.90;;;;;;5098745;28;20225;-79
2021/06/12 06:11:48;;;;;;;24.80;17.27;;;20.00;99.90;;;;;;5092350;28;20284;-80
2021/06/12 06:14:15;;;;;;;24.20;16.75;;;20.10;99.90;;;;;;5098682;28;20689;-80
2021/06/12 06:16:42;;;;;;;25.38;17.20;;;20.10;99.90;;;;;;5099898;28;20259;-79
2021/06/12 06:19:09;;;;;;;28.00;19.60;;;19.80;99.90;;;;;;5105677;28;20217;-79
2021/06/12 06:21:35;;;;;;;24.23;17.25;;;19.80;99.90;;;;;;5104415;28;20229;-81
2021/06/12 06:24:04;;;;;;;25.08;17.50;;;19.90;99.90;;;;;;5090978;28;20296;-79
2021/06/12 06:26:30;;;;;;;23.90;15.98;;;19.80;99.90;;;;;;5104383;28;20239;-79
2021/06/12 06:28:57;;;;;;;24.45;17.55;;;19.90;99.90;;;;;;5096459;28;20279;-79
2021/06/12 06:31:23;;;;;;;23.77;15.93;;;19.70;99.90;;;;;;5091471;28;20213;-79
2021/06/12 06:33:50;;;;;;;24.95;17.10;;;19.80;99.90;;;;;;5091719;28;20221;-79
2021/06/12 06:36:16;;;;;;;22.60;16.45;;;19.90;99.90;;;;;;5099346;28;20248;-79
2021/06/12 06:38:43;;;;;;;23.83;17.30;;;19.80;99.90;;;;;;5106270;28;20217;-79
2021/06/12 06:41:11;;;;;;;21.77;15.30;;;19.90;99.90;;;;;;5097065;28;20201;-79
2021/06/12 06:43:37;;;;;;;20.75;14.70;;;20.00;99.90;;;;;;5093362;28;20563;-80
2021/06/12 06:46:04;;;;;;;22.17;16.05;;;20.00;99.90;;;;;;5100973;28;20201;-79
2021/06/12 06:48:30;;;;;;;26.23;16.63;;;19.80;99.90;;;;;;5094146;28;20225;-79
2021/06/12 06:50:57;;;;;;;23.55;16.13;;;19.80;99.90;;;;;;5102718;28;20216;-80
2021/06/12 06:53:23;;;;;;;21.55;14.90;;;19.90;99.90;;;;;;5106285;28;20197;-79
2021/06/12 06:55:49;;;;;;;23.80;15.93;;;19.80;99.90;;;;;;5101912;28;20252;-78
2021/06/12 06:58:17;;;;;;;22.08;15.75;;;19.80;99.90;;;;;;5099737;28;20224;-79
2021/06/12 07:00:44;;;;;;;21.98;15.68;;;19.70;99.90;;;;;;5094782;28;20208;-79
2021/06/12 07:03:10;;;;;;;21.88;15.32;;;19.70;99.90;;;;;;5109914;28;20200;-79
2021/06/12 07:05:37;;;;;;;19.77;13.63;;;19.60;99.90;;;;;;5098278;28;20552;-79
2021/06/12 07:08:03;;;;;;;21.02;13.55;;;19.60;99.90;;;;;;5097970;28;20221;-79
2021/06/12 07:10:30;;;;;;;19.30;14.43;;;19.70;99.90;;;;;;5094649;28;20201;-79
2021/06/12 07:13:01;;;;;;;23.63;14.77;;;19.70;99.90;;;;;;5109258;28;20205;-78
2021/06/12 07:15:29;;;;;;;24.13;15.00;;;19.60;99.90;;;;;;5096345;28;20256;-80
2021/06/12 07:17:55;;;;;;;22.88;16.67;;;19.50;99.90;;;;;;5098674;28;20221;-79
2021/06/12 07:20:23;;;;;;;23.75;15.82;;;19.40;99.90;;;;;;5093003;28;20206;-79
2021/06/12 07:22:49;;;;;;;24.80;16.75;;;19.30;99.90;;;;;;5109054;28;20269;-80
2021/06/12 07:25:16;;;;;;;24.70;16.98;;;19.30;99.90;;;;;;5103634;28;20651;-79
2021/06/12 07:27:42;;;;;;;23.60;16.33;;;19.20;99.90;;;;;;5112711;28;20236;-80
2021/06/12 07:30:09;;;;;;;25.50;16.55;;;19.20;99.90;;;;;;5097923;28;20197;-80
2021/06/12 07:32:37;;;;;;;22.88;16.08;;;19.20;99.90;;;;;;5106136;28;20213;-79
2021/06/12 07:35:05;;;;;;;26.10;16.88;;;19.20;99.90;;;;;;5111970;28;20228;-79
2021/06/12 07:37:31;;;;;;;21.92;15.98;;;19.30;99.90;;;;;;5108838;28;20213;-79
2021/06/12 07:39:58;;;;;;;21.52;15.52;;;19.20;99.90;;;;;;5103825;28;20194;-81
2021/06/12 07:42:24;;;;;;;24.05;16.05;;;19.20;99.90;;;;;;5101391;28;20198;-79
2021/06/12 07:44:51;;;;;;;24.38;17.00;;;19.20;99.90;;;;;;5104870;28;20654;-80
2021/06/12 07:47:17;;;;;;;24.30;18.02;;;19.10;99.90;;;;;;5113572;28;20626;-79
2021/06/12 07:49:45;;;;;;;23.25;17.58;;;18.90;99.90;;;;;;5109217;28;20213;-79
2021/06/12 07:52:12;;;;;;;23.73;16.80;;;19.00;99.90;;;;;;5114824;28;20208;-79
2021/06/12 07:54:38;;;;;;;23.08;16.70;;;18.80;99.90;;;;;;5103173;28;20197;-80
2021/06/12 07:57:06;;;;;;;23.52;17.60;;;18.80;99.90;;;;;;5099456;28;20202;-80
2021/06/12 07:59:32;;;;;;;25.30;18.30;;;19.10;99.90;;;;;;5093428;28;20690;-80
2021/06/12 08:01:59;;;;;;;24.30;17.83;;;19.30;99.90;;;;;;5097004;28;20674;-79
2021/06/12 08:04:25;;;;;;;22.77;17.65;;;19.60;99.90;;;;;;5100909;28;20201;-80
2021/06/12 08:06:53;;;;;;;24.00;16.63;;;19.60;99.90;;;;;;5108505;28;20208;-80
2021/06/12 08:09:19;;;;;;;22.70;17.65;;;19.80;99.90;;;;;;5097832;28;20217;-80
2021/06/12 08:11:46;;;;;;;21.48;16.15;;;20.30;99.90;;;;;;5101920;28;20233;-80
2021/06/12 08:14:12;;;;;;;26.27;17.58;;;20.10;99.90;;;;;;5095167;28;20556;-80
2021/06/12 08:16:39;;;;;;;22.95;16.83;;;20.10;99.90;;;;;;5101827;28;20226;-79
2021/06/12 08:19:05;;;;;;;24.30;15.98;;;20.20;99.90;;;;;;5093627;28;20229;-79
2021/06/12 08:21:32;;;;;;;22.58;16.77;;;20.10;99.90;;;;;;5095315;28;20201;-80
2021/06/12 08:24:00;;;;;;;22.08;15.38;;;20.20;99.90;;;;;;5093915;28;20202;-79
2021/06/12 08:26:26;;;;;;;21.60;14.57;;;20.40;99.90;;;;;;5093835;28;20643;-80
2021/06/12 08:28:54;;;;;;;17.73;13.05;;;20.60;99.90;;;;;;5097946;28;20228;-79
2021/06/12 08:31:20;;;;;;;19.27;13.27;;;20.60;99.90;;;;;;5106021;28;20201;-81
2021/06/12 08:33:47;;;;;;;19.83;14.32;;;20.70;99.90;;;;;;5093982;28;20198;-80
2021/06/12 08:36:14;;;;;;;20.15;13.75;;;20.40;99.90;;;;;;5108258;28;20225;-79
2021/06/12 08:38:40;;;;;;;19.25;12.55;;;20.60;99.90;;;;;;5093505;28;20803;-80
2021/06/12 08:41:08;;;;;;;17.85;13.25;;;20.70;99.90;;;;;;5094413;28;20293;-79
2021/06/12 08:43:35;;;;;;;15.27;11.68;;;20.70;99.90;;;;;;5091462;28;20217;-79
2021/06/12 08:46:02;;;;;;;16.23;11.75;;;20.80;99.90;;;;;;5096890;28;20203;-79
2021/06/12 08:48:29;;;;;;;16.55;11.88;;;20.70;99.90;;;;;;5103900;28;20221;-79
2021/06/12 08:50:56;;;;;;;16.67;11.48;;;20.90;99.90;;;;;;5095003;28;20198;-79
2021/06/12 08:53:23;;;;;;;15.18;11.25;;;21.00;99.90;;;;;;5110740;28;20201;-79
2021/06/12 08:55:50;;;;;;;16.67;11.32;;;21.00;99.90;;;;;;5105218;28;20216;-80
2021/06/12 08:58:17;;;;;;;14.75;10.75;;;21.20;99.90;;;;;;5108981;28;20275;-79
2021/06/12 09:00:45;;;;;;;17.40;11.35;;;21.20;99.90;;;;;;5094259;28;20205;-79
2021/06/12 09:03:16;;;;;;;15.65;10.57;;;21.50;99.90;;;;;;5093311;28;20212;-79
2021/06/12 09:05:48;;;;;;;15.63;9.88;;;21.50;99.90;;;;;;5103288;28;20197;-80
2021/06/12 09:08:17;;;;;;;14.60;9.98;;;21.30;99.90;;;;;;5111331;28;20221;-80
2021/06/12 09:11:02;;;;;;;13.45;9.70;;;21.40;99.90;;;;;;5093223;28;20659;-79
2021/06/12 09:13:42;;;;;;;12.75;9.40;;;21.50;99.90;;;;;;5091780;28;20209;-79
2021/06/12 09:16:21;;;;;;;13.90;9.68;;;21.50;99.90;;;;;;5090948;28;20232;-80
2021/06/12 09:18:48;;;;;;;12.98;8.90;;;21.50;99.90;;;;;;5102563;28;20301;-80
2021/06/12 09:21:27;;;;;;;14.70;9.63;;;21.60;99.90;;;;;;5093877;28;20201;-79
2021/06/12 09:23:54;;;;;;;16.33;9.77;;;22.00;99.90;;;;;;5100992;28;20622;-79
2021/06/12 09:26:22;;;;;;;14.48;9.60;;;22.30;99.90;;;;;;5105986;28;20246;-79
2021/06/12 09:28:52;;;;;;;13.10;8.88;;;22.20;99.90;;;;;;5095322;28;20225;-80
2021/06/12 09:31:24;;;;;;;14.30;8.43;;;22.60;99.90;;;;;;5101662;28;20197;-79
2021/06/12 09:33:54;;;;;;;10.95;8.73;;;23.40;99.90;;;;;;5111054;28;20211;-80
2021/06/12 09:36:31;;;;;;;11.85;8.75;;;22.90;99.90;;;;;;5096907;28;20221;-79
2021/06/12 09:39:10;;;;;;;11.85;7.85;;;22.50;99.90;;;;;;5088352;28;20231;-80
2021/06/12 09:41:37;;;;;;;11.30;8.25;;;22.70;99.90;;;;;;5090872;28;20201;-79
2021/06/12 09:44:06;;;;;;;11.82;7.68;;;22.60;99.90;;;;;;5100233;28;20568;-78
2021/06/12 09:46:41;;;;;;;10.82;7.60;;;22.70;99.90;;;;;;5105120;28;20205;-81
2021/06/12 09:49:10;;;;;;;10.05;7.72;;;22.70;99.90;;;;;;5090103;28;20244;-79
2021/06/12 09:51:37;;;;;;;13.68;8.13;;;22.70;99.90;;;;;;5088645;28;20197;-80
2021/06/12 09:54:06;;;;;;;11.60;8.43;;;22.70;99.90;;;;;;5090085;28;20254;-80
2021/06/12 09:56:34;;;;;;;9.45;7.65;;;22.80;99.90;;;;;;5096470;28;20274;-79
2021/06/12 09:59:01;;;;;;;9.88;7.53;;;23.10;99.90;;;;;;5094777;28;20574;-80
2021/06/12 10:01:32;;;;;;;14.90;8.45;;;23.40;99.90;;;;;;5096167;27;20288;-80
2021/06/12 10:04:12;;;;;;;12.63;8.27;;;23.30;99.90;;;;;;5090754;28;20208;-80
2021/06/12 10:06:39;;;;;;;12.02;7.97;;;22.90;99.90;;;;;;5084849;28;20201;-81
2021/06/12 10:09:07;;;;;;;10.95;8.38;;;22.50;99.90;;;;;;5093947;28;20254;-80
2021/06/12 10:11:35;;;;;;;13.10;8.27;;;22.20;99.90;;;;;;5093288;28;20267;-81
2021/06/12 10:14:02;;;;;;;9.57;8.35;;;22.10;99.90;;;;;;5092135;28;20234;-80
2021/06/12 10:16:33;;;;;;;9.32;7.47;;;21.80;99.90;;;;;;5104007;28;20594;-80
2021/06/12 10:19:03;;;;;;;8.95;7.97;;;21.80;99.90;;;;;;5098019;28;20317;-81
2021/06/12 10:21:30;;;;;;;14.05;8.50;;;21.80;99.90;;;;;;5099548;28;20197;-80
2021/06/12 10:23:57;;;;;;;11.55;9.20;;;21.80;99.90;;;;;;5084315;28;20713;-80
2021/06/12 10:26:24;;;;;;;13.68;9.05;;;21.50;99.90;;;;;;5092118;28;20205;-80
2021/06/12 10:28:51;;;;;;;11.80;8.82;;;21.40;99.90;;;;;;5094616;28;20225;-81
2021/06/12 10:31:21;;;;;;;14.00;8.93;;;21.30;99.90;;;;;;5087004;28;20201;-81
2021/06/12 10:33:52;;;;;;;11.38;9.02;;;21.30;99.90;;;;;;5083992;28;20635;-80
2021/06/12 10:36:21;;;;;;;13.23;9.75;;;21.20;99.90;;;;;;5091651;28;20248;-81
2021/06/12 10:38:49;;;;;;;13.75;9.57;;;21.00;99.90;;;;;;5091781;28;20217;-80
2021/06/12 10:41:18;;;;;;;11.75;9.48;;;20.80;99.90;;;;;;5087237;28;20300;-80
2021/06/12 10:43:46;;;;;;;11.90;8.85;;;20.70;99.90;;;;;;5085325;28;20569;-81
2021/06/12 10:46:15;;;;;;;13.02;9.00;;;20.70;99.90;;;;;;5093537;28;20584;-81
2021/06/12 10:48:44;;;;;;;11.55;9.80;;;20.60;99.90;;;;;;5090332;28;20310;-81
2021/06/12 10:51:14;;;;;;;13.77;10.13;;;20.60;99.90;;;;;;5083260;28;20240;-81
2021/06/12 10:53:43;;;;;;;14.13;10.80;;;20.70;99.90;;;;;;5085052;28;20288;-82
2021/06/12 10:56:11;;;;;;;13.05;10.73;;;20.70;99.90;;;;;;5095964;28;20224;-83
2021/06/12 10:58:48;;;;;;;13.85;9.90;;;20.80;99.90;;;;;;5089687;28;20539;-80
2021/06/12 11:01:19;;;;;;;12.02;9.70;;;21.00;99.90;;;;;;5085954;28;20193;-79
2021/06/12 11:03:58;;;;;;;9.88;8.00;;;21.00;99.90;;;;;;5085921;28;20671;-81
2021/06/12 11:06:39;;;;;;;9.32;7.47;;;21.60;99.90;;;;;;5100042;28;20682;-80
2021/06/12 11:09:37;;;;;;;8.20;6.80;;;22.50;99.90;;;;;;5092925;28;20263;-80
2021/06/12 11:12:19;;;;;;;8.02;6.85;;;22.50;99.90;;;;;;5085912;28;20284;-81
2021/06/12 11:14:56;;;;;;;10.27;7.40;;;22.40;99.90;;;;;;5089043;28;20205;-81
2021/06/12 11:17:22;;;;;;;9.95;7.07;;;22.30;99.90;;;;;;5085114;28;20623;-80
2021/06/12 11:19:51;;;;;;;9.18;6.97;;;22.10;99.90;;;;;;5088129;28;20221;-83
2021/06/12 11:22:30;;;;;;;10.35;6.60;;;22.30;99.90;;;;;;5101607;28;20207;-81
2021/06/12 11:24:58;;;;;;;8.93;6.70;;;22.20;99.90;;;;;;5097735;28;20472;-81
2021/06/12 11:27:28;;;;;;;7.93;6.25;;;22.30;99.90;;;;;;5095276;28;20199;-81
2021/06/12 11:30:14;;;;;;;9.75;7.05;;;22.60;99.90;;;;;;5085672;28;20317;-81
2021/06/12 11:32:42;;;;;;;7.32;5.60;;;23.00;99.90;;;;;;5097012;28;20580;-80
2021/06/12 11:35:09;;;;;;;10.90;7.10;;;23.20;99.90;;;;;;5085816;28;20645;-80
2021/06/12 11:37:38;;;;;;;8.13;5.78;;;22.70;99.90;;;;;;5089832;28;20206;-81
2021/06/12 11:40:08;;;;;;;10.35;5.25;;;22.70;99.90;;;;;;5090571;28;20268;-79
2021/06/12 11:42:41;;;;;;;8.07;5.45;;;23.40;99.90;;;;;;5098607;28;20205;-79
2021/06/12 11:45:20;;;;;;;5.72;4.30;;;23.20;99.90;;;;;;5095194;28;20572;-81
2021/06/12 11:47:47;;;;;;;6.57;4.00;;;23.10;99.90;;;;;;5094906;28;20226;-80
2021/06/12 11:50:14;;;;;;;4.70;3.63;;;22.70;99.90;;;;;;5097188;28;20304;-80
2021/06/12 11:52:43;;;;;;;4.07;3.63;;;23.50;99.90;;;;;;5096945;28;20622;-82
2021/06/12 11:55:15;;;;;;;7.88;4.03;;;24.00;99.90;;;;;;5091962;28;20297;-83
2021/06/12 11:57:43;;;;;;;7.30;4.10;;;24.10;99.90;;;;;;5095980;28;20213;-85
2021/06/12 12:00:25;;;;;;;6.32;3.70;;;23.90;99.90;;;;;;5102418;28;20256;-82
2021/06/12 12:02:58;;;;;;;6.55;4.07;;;24.00;99.90;;;;;;5095737;28;20208;-80
2021/06/12 12:05:24;;;;;;;6.03;3.40;;;23.50;99.90;;;;;;5094150;28;20219;-81
2021/06/12 12:07:52;;;;;;;6.47;3.80;;;23.10;99.90;;;;;;5095771;28;20286;-80
2021/06/12 12:10:24;;;;;;;7.53;4.10;;;23.60;99.90;;;;;;5100931;28;20682;-82
2021/06/12 12:12:50;;;;;;;4.60;3.65;;;23.40;99.90;;;;;;5100105;28;20285;-81
2021/06/12 12:15:39;;;;;;;5.75;3.85;;;23.50;99.90;;;;;;5095027;28;20197;-80
2021/06/12 12:18:07;;;;;;;5.63;3.97;;;23.40;99.90;;;;;;5097169;28;20235;-82
2021/06/12 12:20:39;;;;;;;6.90;3.50;;;23.10;99.90;;;;;;5101505;28;20433;-81
2021/06/12 12:23:25;;;;;;;5.93;4.20;;;23.30;99.90;;;;;;5095924;28;20256;-81
2021/06/12 12:26:03;;;;;;;6.43;3.53;;;23.30;99.90;;;;;;5098764;28;20455;-81
2021/06/12 12:28:30;;;;;;;4.25;3.35;;;23.80;99.90;;;;;;5105343;28;20385;-81
2021/06/12 12:31:06;;;;;;;7.38;3.90;;;23.80;99.90;;;;;;5095100;28;20205;-83
2021/06/12 12:33:44;;;;;;;7.15;3.53;;;23.50;99.90;;;;;;5103280;28;20223;-81
2021/06/12 12:36:10;;;;;;;8.43;3.90;;;23.00;99.90;;;;;;5103467;28;20641;-80
2021/06/12 12:38:39;;;;;;;5.90;3.92;;;22.60;99.90;;;;;;5096016;28;20218;-81
2021/06/12 12:41:08;;;;;;;6.90;3.67;;;22.70;99.90;;;;;;5096760;28;20277;-80
2021/06/12 12:43:35;;;;;;;6.65;3.97;;;22.90;99.90;;;;;;5105079;28;20239;-80